createdAt,value
2017-08-17T00:01:45.265Z,21.50
2017-08-17T00:04:12.732Z,21.50
2017-08-17T00:06:40.213Z,21.40
2017-08-17T00:09:08.442Z,21.40
2017-08-17T00:11:35.883Z,21.40
2017-08-17T00:14:03.395Z,21.40
2017-08-17T00:16:31.290Z,21.40
2017-08-17T00:18:59.136Z,21.30
2017-08-17T00:21:27.313Z,21.30
2017-08-17T00:23:55.520Z,21.20
2017-08-17T00:26:23.922Z,21.20
2017-08-17T00:28:51.376Z,21.20
2017-08-17T00:31:19.655Z,21.20
2017-08-17T00:33:47.514Z,21.10
2017-08-17T00:36:15.783Z,21.10
2017-08-17T00:38:43.930Z,21.10
2017-08-17T00:41:11.400Z,21.10
2017-08-17T00:43:40.033Z,21.10
2017-08-17T00:46:08.483Z,21.10
2017-08-17T00:48:36.314Z,21.10
2017-08-17T00:51:03.757Z,21.10
2017-08-17T00:53:31.221Z,21.10
2017-08-17T00:55:58.799Z,21.00
2017-08-17T00:58:27.334Z,21.00
2017-08-17T01:00:54.901Z,21.00
2017-08-17T01:03:22.336Z,21.00
2017-08-17T01:05:49.807Z,21.00
2017-08-17T01:08:18.019Z,20.90
2017-08-17T01:10:45.941Z,20.90
2017-08-17T01:13:13.375Z,20.80
2017-08-17T01:15:41.486Z,20.80
2017-08-17T01:18:09.222Z,20.70
2017-08-17T01:20:36.681Z,20.70
2017-08-17T01:23:04.842Z,20.60
2017-08-17T01:25:33.126Z,20.60
2017-08-17T01:28:01.427Z,20.60
2017-08-17T01:30:29.212Z,20.60
2017-08-17T01:32:58.589Z,20.50
2017-08-17T01:35:26.180Z,20.50
2017-08-17T01:37:55.387Z,20.50
2017-08-17T01:40:22.817Z,20.40
2017-08-17T01:42:50.301Z,20.40
2017-08-17T01:45:17.738Z,20.40
2017-08-17T01:47:45.227Z,20.40
2017-08-17T01:50:12.739Z,20.30
2017-08-17T01:52:40.972Z,20.40
2017-08-17T01:55:08.957Z,20.30
2017-08-17T01:57:38.017Z,20.30
2017-08-17T02:00:05.481Z,20.30
2017-08-17T02:02:33.710Z,20.30
2017-08-17T02:05:01.177Z,20.30
2017-08-17T02:07:29.387Z,20.30
2017-08-17T02:09:57.157Z,20.30
2017-08-17T02:12:24.593Z,20.30
2017-08-17T02:14:53.478Z,20.30
2017-08-17T02:17:21.647Z,20.30
2017-08-17T02:19:50.401Z,20.20
2017-08-17T02:22:18.187Z,20.10
2017-08-17T02:24:45.621Z,20.10
2017-08-17T02:27:14.269Z,20.00
2017-08-17T02:29:42.217Z,20.00
2017-08-17T02:32:09.663Z,20.00
2017-08-17T02:34:37.124Z,20.00
2017-08-17T02:37:05.673Z,19.90
2017-08-17T02:39:33.116Z,19.90
2017-08-17T02:42:00.606Z,19.90
2017-08-17T02:44:28.058Z,19.90
2017-08-17T02:46:55.599Z,19.90
2017-08-17T02:49:23.577Z,19.90
2017-08-17T02:51:51.023Z,19.90
2017-08-17T02:54:18.690Z,19.90
2017-08-17T02:56:47.350Z,19.80
2017-08-17T02:59:14.801Z,19.80
2017-08-17T03:01:43.445Z,19.80
2017-08-17T03:04:10.931Z,19.70
2017-08-17T03:06:38.406Z,19.70
2017-08-17T03:09:05.847Z,19.70
2017-08-17T03:11:33.301Z,19.60
2017-08-17T03:14:01.083Z,19.60
2017-08-17T03:16:30.351Z,19.60
2017-08-17T03:18:58.928Z,19.60
2017-08-17T03:21:27.145Z,19.70
2017-08-17T03:23:54.686Z,19.70
2017-08-17T03:26:22.253Z,19.70
2017-08-17T03:28:50.213Z,19.60
2017-08-17T03:31:17.643Z,19.60
2017-08-17T03:33:45.137Z,19.60
2017-08-17T03:36:14.377Z,19.60
2017-08-17T03:38:41.913Z,19.60
2017-08-17T03:41:09.424Z,19.60
2017-08-17T03:43:36.866Z,19.50
2017-08-17T03:46:05.282Z,19.50
2017-08-17T03:48:33.435Z,19.50
2017-08-17T03:51:02.007Z,19.40
2017-08-17T03:53:30.213Z,19.40
2017-08-17T03:55:57.989Z,19.30
2017-08-17T03:58:26.664Z,19.30
2017-08-17T04:00:54.876Z,19.30
2017-08-17T04:03:22.891Z,19.30
2017-08-17T04:05:51.731Z,19.20
2017-08-17T04:08:19.517Z,19.20
2017-08-17T04:10:46.979Z,19.20
2017-08-17T04:13:15.226Z,19.10
2017-08-17T04:15:43.006Z,19.10
2017-08-17T04:18:11.430Z,19.20
2017-08-17T04:20:39.258Z,19.10
2017-08-17T04:23:07.441Z,19.10
2017-08-17T04:25:35.695Z,19.10
2017-08-17T04:28:03.543Z,19.10
2017-08-17T04:30:31.298Z,19.10
2017-08-17T04:32:58.733Z,19.10
2017-08-17T04:35:26.377Z,19.10
2017-08-17T04:37:54.171Z,19.10
2017-08-17T04:40:21.771Z,19.10
2017-08-17T04:42:49.213Z,19.10
2017-08-17T04:45:17.886Z,19.10
2017-08-17T04:47:46.545Z,19.10
2017-08-17T04:50:14.197Z,19.10
2017-08-17T04:52:41.680Z,19.10
2017-08-17T04:55:09.146Z,19.10
2017-08-17T04:58:10.103Z,19.10
2017-08-17T05:00:37.546Z,19.10
2017-08-17T05:03:06.419Z,19.10
2017-08-17T05:05:33.865Z,19.10
2017-08-17T05:08:03.623Z,19.20
2017-08-17T05:10:31.087Z,19.20
2017-08-17T05:12:58.529Z,19.30
2017-08-17T05:15:26.041Z,19.30
2017-08-17T05:17:53.866Z,19.30
2017-08-17T05:20:21.569Z,19.30
2017-08-17T05:22:49.380Z,19.40
2017-08-17T05:25:16.821Z,19.40
2017-08-17T05:27:44.526Z,19.50
2017-08-17T05:30:12.740Z,19.50
2017-08-17T05:32:40.230Z,19.50
2017-08-17T05:35:08.440Z,19.60
2017-08-17T05:37:36.334Z,19.70
2017-08-17T05:40:05.563Z,19.70
2017-08-17T05:42:33.025Z,19.70
2017-08-17T05:45:00.533Z,19.70
2017-08-17T05:47:29.257Z,19.80
2017-08-17T05:49:57.321Z,19.80
2017-08-17T05:52:24.820Z,19.90
2017-08-17T05:54:52.349Z,19.90
2017-08-17T05:57:20.248Z,19.90
2017-08-17T05:59:47.721Z,20.00
2017-08-17T06:02:15.530Z,20.00
2017-08-17T06:04:43.585Z,20.10
2017-08-17T06:07:11.034Z,20.10
2017-08-17T06:09:38.649Z,20.20
2017-08-17T06:12:06.336Z,20.20
2017-08-17T06:14:34.654Z,20.30
2017-08-17T06:17:03.253Z,20.30
2017-08-17T06:19:30.689Z,20.40
2017-08-17T06:21:58.562Z,20.50
2017-08-17T06:24:26.780Z,20.60
2017-08-17T06:26:54.242Z,20.60
2017-08-17T06:29:22.304Z,20.60
2017-08-17T06:31:50.246Z,20.70
2017-08-17T06:34:17.717Z,20.70
2017-08-17T06:36:45.587Z,20.70
2017-08-17T06:39:13.111Z,20.80
2017-08-17T06:41:41.317Z,20.80
2017-08-17T06:44:08.785Z,20.80
2017-08-17T06:46:37.013Z,20.80
2017-08-17T06:49:04.901Z,20.80
2017-08-17T06:51:32.423Z,20.80
2017-08-17T06:54:00.054Z,20.80
2017-08-17T06:56:27.646Z,20.80
2017-08-17T06:58:57.244Z,20.80
2017-08-17T07:01:25.450Z,20.90
2017-08-17T07:03:52.890Z,20.80
2017-08-17T07:06:20.537Z,20.80
2017-08-17T07:08:47.985Z,20.80
2017-08-17T07:11:15.459Z,20.90
2017-08-17T07:13:42.897Z,20.90
2017-08-17T07:16:11.677Z,21.00
2017-08-17T07:18:41.565Z,21.10
2017-08-17T07:21:09.319Z,21.10
2017-08-17T07:23:37.872Z,21.20
2017-08-17T07:26:05.402Z,21.20
2017-08-17T07:28:33.366Z,21.30
2017-08-17T07:31:01.121Z,21.30
2017-08-17T07:33:28.560Z,21.40
2017-08-17T07:35:56.024Z,21.50
2017-08-17T07:38:24.768Z,21.60
2017-08-17T07:40:52.616Z,21.60
2017-08-17T07:43:20.048Z,21.60
2017-08-17T07:45:48.008Z,21.60
2017-08-17T07:48:15.982Z,21.60
2017-08-17T07:50:44.638Z,21.60
2017-08-17T07:53:12.082Z,21.60
2017-08-17T07:55:39.642Z,21.70
2017-08-17T07:58:08.406Z,21.70
2017-08-17T08:00:37.300Z,21.80
2017-08-17T08:03:04.745Z,21.80
2017-08-17T08:05:32.223Z,21.80
2017-08-17T08:07:59.671Z,21.90
2017-08-17T08:10:27.538Z,22.00
2017-08-17T08:12:54.992Z,22.10
2017-08-17T08:15:22.461Z,22.10
2017-08-17T08:17:50.224Z,22.20
2017-08-17T08:20:17.717Z,22.30
2017-08-17T08:22:45.678Z,22.40
2017-08-17T08:25:13.920Z,22.40
2017-08-17T08:27:41.361Z,22.40
2017-08-17T08:30:08.854Z,22.50
2017-08-17T08:32:36.882Z,22.50
2017-08-17T08:35:05.092Z,22.70
2017-08-17T08:37:33.183Z,22.60
2017-08-17T08:40:00.952Z,22.70
2017-08-17T08:42:29.251Z,22.70
2017-08-17T08:44:56.720Z,22.70
2017-08-17T08:47:24.167Z,22.70
2017-08-17T08:49:52.141Z,22.80
2017-08-17T08:52:20.360Z,22.70
2017-08-17T08:54:47.818Z,22.70
2017-08-17T08:57:15.864Z,22.70
2017-08-17T08:59:43.316Z,22.70
2017-08-17T09:02:10.791Z,22.70
2017-08-17T09:04:38.572Z,22.70
2017-08-17T09:07:06.041Z,22.70
2017-08-17T09:09:33.482Z,22.70
2017-08-17T09:12:01.147Z,22.70
2017-08-17T09:14:29.373Z,22.80
2017-08-17T09:16:57.943Z,22.80
2017-08-17T09:19:25.818Z,22.80
2017-08-17T09:21:53.649Z,22.90
2017-08-17T09:24:21.335Z,22.90
2017-08-17T09:26:49.800Z,23.00
2017-08-17T09:29:17.292Z,22.90
2017-08-17T09:31:45.189Z,23.00
2017-08-17T09:34:13.413Z,23.10
2017-08-17T09:36:41.784Z,23.10
2017-08-17T09:39:09.570Z,23.20
2017-08-17T09:41:37.072Z,23.20
2017-08-17T09:44:04.505Z,23.30
2017-08-17T09:46:31.969Z,23.30
2017-08-17T09:49:00.518Z,23.30
2017-08-17T09:51:28.269Z,23.30
2017-08-17T09:53:55.784Z,23.30
2017-08-17T09:56:23.240Z,23.40
2017-08-17T09:58:51.310Z,23.30
2017-08-17T10:01:19.767Z,23.40
2017-08-17T10:03:47.996Z,23.40
2017-08-17T10:06:15.417Z,23.30
2017-08-17T10:08:42.897Z,23.30
2017-08-17T10:11:10.975Z,23.30
2017-08-17T10:13:38.466Z,23.40
2017-08-17T10:16:06.413Z,23.30
2017-08-17T10:18:35.452Z,23.40
2017-08-17T10:21:02.905Z,23.40
2017-08-17T10:23:33.042Z,23.60
2017-08-17T10:26:01.962Z,23.50
2017-08-17T10:28:29.397Z,23.60
2017-08-17T10:30:57.409Z,23.60
2017-08-17T10:33:25.107Z,23.60
2017-08-17T10:35:52.577Z,23.70
2017-08-17T10:38:21.015Z,23.80
2017-08-17T10:40:48.486Z,23.70
2017-08-17T10:43:17.299Z,23.80
2017-08-17T10:45:45.284Z,23.80
2017-08-17T10:48:12.753Z,23.80
2017-08-17T10:50:41.054Z,23.80
2017-08-17T10:53:08.518Z,23.80
2017-08-17T10:55:35.962Z,23.70
2017-08-17T10:58:03.917Z,23.70
2017-08-17T11:00:31.380Z,23.70
2017-08-17T11:02:59.585Z,23.60
2017-08-17T11:05:27.536Z,23.60
2017-08-17T11:07:54.971Z,23.60
2017-08-17T11:10:22.917Z,23.60
2017-08-17T11:12:50.358Z,23.60
2017-08-17T11:15:17.837Z,23.60
2017-08-17T11:17:45.563Z,23.60
2017-08-17T11:20:13.553Z,23.60
2017-08-17T11:22:42.286Z,23.60
2017-08-17T11:25:09.727Z,23.60
2017-08-17T11:27:37.200Z,23.60
2017-08-17T11:30:05.053Z,23.60
2017-08-17T11:32:32.509Z,23.60
2017-08-17T11:35:00.760Z,23.70
2017-08-17T11:37:28.807Z,23.70
2017-08-17T11:39:56.301Z,23.70
2017-08-17T11:42:23.744Z,23.70
2017-08-17T11:44:51.605Z,23.80
2017-08-17T11:47:19.062Z,23.80
2017-08-17T11:49:46.819Z,23.90
2017-08-17T11:52:14.258Z,23.90
2017-08-17T11:54:41.698Z,24.00
2017-08-17T11:57:09.893Z,24.10
2017-08-17T11:59:37.719Z,24.10
2017-08-17T12:02:05.475Z,24.20
2017-08-17T12:04:33.693Z,24.40
2017-08-17T12:07:01.237Z,24.40
2017-08-17T12:09:28.683Z,24.50
2017-08-17T12:11:56.170Z,24.50
2017-08-17T12:14:24.405Z,24.70
2017-08-17T12:16:52.461Z,24.60
2017-08-17T12:19:20.418Z,24.70
2017-08-17T12:21:48.308Z,24.70
2017-08-17T12:24:15.782Z,24.70
2017-08-17T12:26:43.229Z,24.60
2017-08-17T12:29:10.704Z,24.60
2017-08-17T12:31:38.915Z,24.60
2017-08-17T12:34:06.536Z,24.60
2017-08-17T12:36:34.586Z,24.70
2017-08-17T12:39:02.034Z,24.70
2017-08-17T12:41:29.504Z,24.70
2017-08-17T12:43:59.631Z,24.80
2017-08-17T12:46:28.189Z,24.80
2017-08-17T12:48:55.642Z,24.80
2017-08-17T12:51:23.270Z,24.70
2017-08-17T12:53:51.209Z,24.70
2017-08-17T12:56:18.656Z,24.70
2017-08-17T12:58:46.500Z,24.60
2017-08-17T13:01:16.167Z,24.60
2017-08-17T13:03:44.202Z,24.60
2017-08-17T13:06:12.538Z,24.50
2017-08-17T13:08:41.007Z,24.50
2017-08-17T13:11:10.291Z,24.40
2017-08-17T13:13:38.349Z,24.40
2017-08-17T13:16:06.929Z,24.30
2017-08-17T13:18:35.575Z,24.30
2017-08-17T13:21:03.052Z,24.30
2017-08-17T13:23:30.938Z,24.30
2017-08-17T13:25:58.520Z,24.20
2017-08-17T13:28:26.853Z,24.10
2017-08-17T13:30:54.429Z,24.10
2017-08-17T13:33:21.862Z,24.10
2017-08-17T13:35:50.098Z,24.00
2017-08-17T13:38:17.811Z,23.90
2017-08-17T13:40:45.309Z,23.90
2017-08-17T13:43:14.911Z,23.80
2017-08-17T13:45:42.655Z,23.70
2017-08-17T13:48:11.834Z,23.60
2017-08-17T13:50:39.296Z,23.60
2017-08-17T13:53:09.187Z,23.60
2017-08-17T13:55:37.631Z,23.50
2017-08-17T13:58:05.728Z,23.50
2017-08-17T14:00:33.196Z,23.40
2017-08-17T14:03:03.703Z,23.40
2017-08-17T14:05:31.266Z,23.40
2017-08-17T14:07:58.704Z,23.40
2017-08-17T14:10:26.175Z,23.20
2017-08-17T14:12:53.631Z,23.00
2017-08-17T14:15:21.913Z,22.70
2017-08-17T14:17:49.915Z,22.70
2017-08-17T14:20:17.701Z,22.60
2017-08-17T14:22:46.408Z,22.30
2017-08-17T14:25:13.857Z,22.30
2017-08-17T14:27:41.492Z,22.10
2017-08-17T14:30:08.938Z,22.00
2017-08-17T14:32:36.913Z,21.90
2017-08-17T14:35:04.414Z,21.80
2017-08-17T14:37:32.381Z,21.80
2017-08-17T14:40:00.804Z,21.80
2017-08-17T14:42:29.545Z,21.90
2017-08-17T14:44:57.497Z,21.80
2017-08-17T14:47:24.935Z,21.90
2017-08-17T14:49:52.394Z,22.00
2017-08-17T14:52:20.592Z,22.10
2017-08-17T14:54:48.925Z,22.10
2017-08-17T14:57:17.751Z,22.20
2017-08-17T14:59:46.047Z,22.10
2017-08-17T15:02:13.507Z,22.20
2017-08-17T15:04:40.969Z,22.30
2017-08-17T15:07:09.303Z,22.30
2017-08-17T15:09:37.547Z,22.30
2017-08-17T15:12:05.830Z,22.30
2017-08-17T15:14:33.514Z,22.30
2017-08-17T15:17:02.021Z,22.30
2017-08-17T15:19:30.594Z,22.30
2017-08-17T15:21:59.562Z,22.20
2017-08-17T15:24:27.031Z,22.20
2017-08-17T15:26:54.457Z,22.20
2017-08-17T15:29:23.104Z,22.20
2017-08-17T15:31:50.849Z,22.20
2017-08-17T15:34:18.322Z,22.30
2017-08-17T15:36:46.957Z,22.30
2017-08-17T15:39:14.706Z,22.30
2017-08-17T15:41:42.181Z,22.40
2017-08-17T15:44:11.402Z,22.40
2017-08-17T15:46:39.109Z,22.40
2017-08-17T15:49:06.573Z,22.40
2017-08-17T15:51:34.031Z,22.50
2017-08-17T15:54:01.478Z,22.50
2017-08-17T15:56:28.923Z,22.50
2017-08-17T15:58:56.899Z,22.50
2017-08-17T16:01:24.384Z,22.50
2017-08-17T16:03:51.818Z,22.60
2017-08-17T16:06:19.311Z,22.50
2017-08-17T16:08:46.848Z,22.50
2017-08-17T16:11:14.306Z,22.50
2017-08-17T16:13:41.824Z,22.60
2017-08-17T16:16:10.153Z,22.60
2017-08-17T16:18:38.178Z,22.50
2017-08-17T16:21:06.090Z,22.50
2017-08-17T16:23:34.374Z,22.50
2017-08-17T16:26:01.846Z,22.40
2017-08-17T16:28:29.779Z,22.40
2017-08-17T16:30:57.829Z,22.40
2017-08-17T16:33:25.290Z,22.40
2017-08-17T16:35:53.486Z,22.30
2017-08-17T16:38:21.686Z,22.30
2017-08-17T16:40:49.138Z,22.30
2017-08-17T16:43:16.598Z,22.20
2017-08-17T16:45:44.125Z,22.10
2017-08-17T16:48:12.644Z,22.10
2017-08-17T16:50:40.664Z,22.10
2017-08-17T16:53:09.366Z,22.10
2017-08-17T16:55:38.044Z,22.10
2017-08-17T16:58:05.921Z,22.10
2017-08-17T17:00:33.369Z,22.10
2017-08-17T17:03:01.578Z,22.10
2017-08-17T17:05:29.057Z,22.10
2017-08-17T17:08:28.398Z,22.10
2017-08-17T17:10:55.858Z,22.10
2017-08-17T17:13:23.330Z,22.10
2017-08-17T17:15:51.314Z,22.00
2017-08-17T17:18:19.948Z,22.10
2017-08-17T17:20:47.779Z,22.10
2017-08-17T17:23:15.588Z,22.10
2017-08-17T17:25:43.625Z,22.10
2017-08-17T17:28:11.892Z,22.10
2017-08-17T17:30:40.756Z,22.10
2017-08-17T17:33:09.506Z,22.10
2017-08-17T17:35:36.999Z,22.10
2017-08-17T17:38:05.524Z,22.10
2017-08-17T17:40:33.059Z,22.10
2017-08-17T17:43:00.498Z,22.10
2017-08-17T17:45:28.029Z,22.10
2017-08-17T17:47:55.491Z,22.10
2017-08-17T17:50:22.927Z,22.10
2017-08-17T17:52:50.572Z,22.00
2017-08-17T17:55:18.317Z,22.00
2017-08-17T17:57:46.581Z,22.00
2017-08-17T18:00:14.067Z,22.00
2017-08-17T18:02:41.869Z,22.00
2017-08-17T18:05:09.514Z,22.00
2017-08-17T18:07:37.673Z,22.00
2017-08-17T18:10:05.669Z,22.00
2017-08-17T18:12:33.135Z,22.00
2017-08-17T18:15:01.070Z,22.00
2017-08-17T18:17:28.971Z,22.00
2017-08-17T18:19:56.437Z,22.00
2017-08-17T18:22:25.394Z,21.90
2017-08-17T18:24:52.817Z,21.90
2017-08-17T18:27:20.304Z,21.90
2017-08-17T18:29:50.794Z,21.80
2017-08-17T18:32:18.822Z,21.80
2017-08-17T18:34:46.277Z,21.70
2017-08-17T18:37:14.080Z,21.70
2017-08-17T18:39:42.072Z,21.60
2017-08-17T18:42:09.551Z,21.60
2017-08-17T18:44:37.782Z,21.60
2017-08-17T18:47:05.260Z,21.60
2017-08-17T18:49:32.703Z,21.60
2017-08-17T18:52:00.624Z,21.60
2017-08-17T18:54:28.769Z,21.60
2017-08-17T18:56:56.678Z,21.60
2017-08-17T18:59:24.137Z,21.60
2017-08-17T19:01:51.593Z,21.50
2017-08-17T19:04:19.892Z,21.50
2017-08-17T19:06:48.145Z,21.50
2017-08-17T19:09:16.685Z,21.50
2017-08-17T19:11:44.122Z,21.50
2017-08-17T19:14:11.561Z,21.50
2017-08-17T19:16:39.114Z,21.50
2017-08-17T19:19:06.969Z,21.50
2017-08-17T19:21:36.865Z,21.60
2017-08-17T19:24:04.305Z,21.60
2017-08-17T19:26:31.791Z,21.60
2017-08-17T19:28:59.283Z,21.60
2017-08-17T19:31:27.344Z,21.60
2017-08-17T19:33:54.837Z,21.60
2017-08-17T19:36:22.850Z,21.50
2017-08-17T19:38:50.317Z,21.50
2017-08-17T19:41:18.034Z,21.50
2017-08-17T19:43:45.479Z,21.50
2017-08-17T19:46:13.739Z,21.50
2017-08-17T19:48:41.206Z,21.50
2017-08-17T19:51:08.683Z,21.50
2017-08-17T19:53:37.277Z,21.50
2017-08-17T19:56:04.732Z,21.50
2017-08-17T19:58:32.678Z,21.40
2017-08-17T20:01:00.727Z,21.40
2017-08-17T20:03:29.299Z,21.40
2017-08-17T20:05:56.727Z,21.40
2017-08-17T20:08:24.598Z,21.40
2017-08-17T20:10:52.846Z,21.40
2017-08-17T20:13:20.702Z,21.30
2017-08-17T20:15:48.178Z,21.40
2017-08-17T20:18:17.016Z,21.40
2017-08-17T20:20:44.495Z,21.40
2017-08-17T20:23:12.524Z,21.40
2017-08-17T20:25:40.976Z,21.40
2017-08-17T20:28:09.056Z,21.40
2017-08-17T20:30:37.321Z,21.50
2017-08-17T20:33:05.280Z,21.50
2017-08-17T20:35:33.327Z,21.50
2017-08-17T20:38:01.421Z,21.50
2017-08-17T20:40:28.908Z,21.50
2017-08-17T20:42:56.752Z,21.50
2017-08-17T20:45:26.025Z,21.50
2017-08-17T20:47:53.517Z,21.50
2017-08-17T20:50:22.091Z,21.50
2017-08-17T20:52:50.219Z,21.50
2017-08-17T20:55:18.566Z,21.50
2017-08-17T20:57:47.326Z,21.50
2017-08-17T21:00:15.301Z,21.50
2017-08-17T21:02:44.049Z,21.60
2017-08-17T21:05:11.504Z,21.50
2017-08-17T21:07:40.078Z,21.50
2017-08-17T21:10:09.505Z,21.60
2017-08-17T21:12:38.377Z,21.50
2017-08-17T21:15:06.269Z,21.50
2017-08-17T21:17:34.859Z,21.50
2017-08-17T21:20:02.348Z,21.50
2017-08-17T21:22:30.657Z,21.40
2017-08-17T21:24:58.110Z,21.40
2017-08-17T21:27:25.572Z,21.40
2017-08-17T21:29:53.051Z,21.40
2017-08-17T21:32:20.500Z,21.30
2017-08-17T21:34:49.281Z,21.30
2017-08-17T21:37:18.177Z,21.20
2017-08-17T21:39:46.406Z,21.20
2017-08-17T21:42:14.319Z,21.20
2017-08-17T21:47:18.512Z,21.10
2017-08-17T21:49:45.988Z,21.10
2017-08-17T21:52:13.462Z,21.10
2017-08-17T21:54:42.281Z,21.00
2017-08-17T21:57:10.278Z,21.00
2017-08-17T21:59:38.251Z,21.00
2017-08-17T22:02:06.608Z,21.00
2017-08-17T22:04:35.507Z,21.00
2017-08-17T22:07:02.994Z,21.00
2017-08-17T22:09:30.814Z,21.00
2017-08-17T22:11:58.299Z,21.00
2017-08-17T22:14:26.315Z,21.00
2017-08-17T22:16:53.849Z,21.10
2017-08-17T22:19:21.979Z,21.10
2017-08-17T22:21:50.066Z,21.10
2017-08-17T22:24:17.503Z,21.10
2017-08-17T22:26:44.978Z,21.10
2017-08-17T22:29:12.585Z,21.10
2017-08-17T22:31:40.042Z,21.00
2017-08-17T22:34:07.917Z,21.00
2017-08-17T22:36:35.993Z,21.00
2017-08-17T22:39:04.459Z,21.00
2017-08-17T22:41:31.895Z,21.00
2017-08-17T22:44:00.725Z,21.00
2017-08-17T22:46:28.352Z,21.00
2017-08-17T22:48:55.804Z,21.00
2017-08-17T22:51:23.325Z,21.00
2017-08-17T22:53:50.766Z,21.00
2017-08-17T22:56:18.681Z,21.00
2017-08-17T22:58:47.762Z,21.00
2017-08-17T23:01:17.113Z,20.90
2017-08-17T23:03:45.776Z,21.00
2017-08-17T23:06:15.182Z,20.90
2017-08-17T23:08:43.280Z,20.90
2017-08-17T23:11:11.499Z,20.80
2017-08-17T23:13:39.580Z,20.80
2017-08-17T23:16:07.054Z,20.80
2017-08-17T23:18:35.131Z,20.70
2017-08-17T23:21:02.582Z,20.70
2017-08-17T23:23:30.570Z,20.60
2017-08-17T23:25:58.773Z,20.60
2017-08-17T23:28:26.274Z,20.60
2017-08-17T23:30:54.473Z,20.50
2017-08-17T23:33:22.537Z,20.50
2017-08-17T23:35:50.005Z,20.50
2017-08-17T23:38:17.832Z,20.50
2017-08-17T23:40:45.307Z,20.50
2017-08-17T23:43:12.745Z,20.40
2017-08-17T23:45:40.223Z,20.40
2017-08-17T23:48:08.040Z,20.40
2017-08-17T23:50:36.718Z,20.30
2017-08-17T23:53:04.182Z,20.30
2017-08-17T23:55:31.654Z,20.30
2017-08-17T23:57:59.469Z,20.30
